createdAt,value
2017-07-17T05:31:20.359Z,1188
2017-07-17T05:31:45.836Z,1116
2017-07-17T05:32:11.316Z,1088
2017-07-17T05:32:36.840Z,1056
2017-07-17T05:33:02.328Z,1068
2017-07-17T05:33:27.811Z,1052
2017-07-17T05:33:53.380Z,1040
2017-07-17T05:34:18.805Z,1092
2017-07-17T05:34:44.278Z,1304
2017-07-17T05:35:09.786Z,1588
2017-07-17T05:35:35.239Z,1760
2017-07-17T05:36:00.720Z,1776
2017-07-17T05:36:26.176Z,1604
2017-07-17T05:36:51.664Z,1428
2017-07-17T05:37:17.113Z,1372
2017-07-17T05:37:42.562Z,1380
2017-07-17T05:38:08.022Z,1392
2017-07-17T05:38:33.469Z,1388
2017-07-17T05:38:58.986Z,1428
2017-07-17T05:39:24.462Z,1520
2017-07-17T05:39:49.927Z,1600
2017-07-17T05:40:15.389Z,1680
2017-07-17T05:40:40.863Z,1720
2017-07-17T05:41:06.329Z,1728
2017-07-17T05:41:31.809Z,1712
2017-07-17T05:41:57.286Z,1636
2017-07-17T05:42:22.731Z,1604
2017-07-17T05:42:48.217Z,1596
2017-07-17T05:43:13.663Z,1616
2017-07-17T05:43:39.136Z,1700
2017-07-17T05:44:04.640Z,1736
2017-07-17T05:44:30.120Z,1812
2017-07-17T05:44:55.583Z,1904
2017-07-17T05:45:21.046Z,1944
2017-07-17T05:45:46.569Z,2004
2017-07-17T05:46:12.033Z,2036
2017-07-17T05:46:37.469Z,2100
2017-07-17T05:47:03.005Z,2244
2017-07-17T05:47:28.501Z,2412
2017-07-17T05:47:53.977Z,2636
2017-07-17T05:48:19.438Z,2788
2017-07-17T05:48:44.903Z,3020
2017-07-17T05:49:10.363Z,3220
2017-07-17T05:49:35.821Z,3176
2017-07-17T05:50:01.296Z,2864
2017-07-17T05:50:26.785Z,2448
2017-07-17T05:50:52.263Z,2852
2017-07-17T05:51:17.760Z,3020
2017-07-17T05:51:43.243Z,2428
2017-07-17T05:52:08.722Z,2416
2017-07-17T05:52:34.197Z,2364
2017-07-17T05:52:59.658Z,2620
2017-07-17T05:53:25.141Z,3268
2017-07-17T05:53:50.611Z,2772
2017-07-17T05:54:16.096Z,2572
2017-07-17T05:54:41.564Z,3388
2017-07-17T05:55:07.046Z,2812
2017-07-17T05:55:32.603Z,2976
2017-07-17T05:55:58.060Z,3408
2017-07-17T05:56:23.608Z,3168
2017-07-17T05:56:49.053Z,3104
2017-07-17T05:57:14.517Z,3320
2017-07-17T05:57:39.997Z,3656
2017-07-17T05:58:05.487Z,4212
2017-07-17T05:58:30.949Z,4836
2017-07-17T05:58:56.424Z,5044
2017-07-17T05:59:21.912Z,4696
2017-07-17T05:59:47.360Z,4220
2017-07-17T06:00:12.830Z,4144
2017-07-17T06:00:38.354Z,4352
2017-07-17T06:01:03.856Z,3616
2017-07-17T06:01:29.307Z,3036
2017-07-17T06:01:54.760Z,2520
2017-07-17T06:02:20.228Z,2248
2017-07-17T06:02:45.727Z,2260
2017-07-17T06:03:11.233Z,2264
2017-07-17T06:03:36.718Z,2316
2017-07-17T06:04:02.184Z,2196
2017-07-17T06:04:27.662Z,2128
2017-07-17T06:04:53.172Z,2124
2017-07-17T06:05:18.622Z,2016
2017-07-17T06:05:44.109Z,2024
2017-07-17T06:06:09.567Z,2208
2017-07-17T06:06:35.012Z,2396
2017-07-17T06:07:00.493Z,2440
2017-07-17T06:07:25.996Z,2336
2017-07-17T06:07:51.489Z,2180
2017-07-17T06:08:17.017Z,2104
2017-07-17T06:08:42.457Z,2084
2017-07-17T06:09:07.907Z,2084
2017-07-17T06:09:33.373Z,2220
2017-07-17T06:09:58.916Z,2412
2017-07-17T06:10:24.400Z,2732
2017-07-17T06:10:49.886Z,3140
2017-07-17T06:11:15.344Z,3568
2017-07-17T06:11:40.837Z,3720
2017-07-17T06:12:06.296Z,3360
2017-07-17T06:12:31.765Z,3120
2017-07-17T06:12:57.223Z,2876
2017-07-17T06:13:22.699Z,2736
2017-07-17T06:13:48.168Z,2448
2017-07-17T06:14:13.676Z,2260
2017-07-17T06:14:39.110Z,2352
2017-07-17T06:15:04.583Z,2024
2017-07-17T06:15:30.054Z,2008
2017-07-17T06:15:55.520Z,2092
2017-07-17T06:16:20.987Z,2292
2017-07-17T06:16:46.472Z,2428
2017-07-17T06:17:11.914Z,2592
2017-07-17T06:17:37.432Z,2828
2017-07-17T06:18:02.919Z,2972
2017-07-17T06:18:28.382Z,3144
2017-07-17T06:18:53.845Z,3440
2017-07-17T06:19:19.313Z,5468
2017-07-17T06:19:44.811Z,4240
2017-07-17T06:20:10.319Z,4220
2017-07-17T06:20:35.825Z,4352
2017-07-17T06:21:01.289Z,4460
2017-07-17T06:21:26.767Z,4604
2017-07-17T06:21:52.241Z,4752
2017-07-17T06:22:17.739Z,4968
2017-07-17T06:22:43.235Z,5500
2017-07-17T06:23:08.710Z,4980
2017-07-17T06:23:34.168Z,4952
2017-07-17T06:23:59.627Z,4972
2017-07-17T06:24:25.096Z,5012
2017-07-17T06:24:50.604Z,5032
2017-07-17T06:25:16.132Z,5092
2017-07-17T06:25:41.622Z,5304
2017-07-17T06:26:07.082Z,5528
2017-07-17T06:26:32.552Z,5540
2017-07-17T06:26:58.016Z,5444
2017-07-17T06:27:23.467Z,5448
2017-07-17T06:27:48.929Z,5444
2017-07-17T06:28:14.397Z,5540
2017-07-17T06:28:39.882Z,5728
2017-07-17T06:29:05.365Z,6960
2017-07-17T06:29:30.829Z,6036
2017-07-17T06:29:56.275Z,6360
2017-07-17T06:30:21.729Z,5800
2017-07-17T06:30:47.225Z,5584
2017-07-17T06:31:12.703Z,5328
2017-07-17T06:31:38.159Z,5428
2017-07-17T06:32:03.617Z,5564
2017-07-17T06:32:29.120Z,5420
2017-07-17T06:32:54.587Z,5212
2017-07-17T06:33:20.075Z,5112
2017-07-17T06:33:45.569Z,4896
2017-07-17T06:34:11.020Z,4768
2017-07-17T06:34:36.494Z,4632
2017-07-17T06:35:01.975Z,4536
2017-07-17T06:35:27.487Z,4412
2017-07-17T06:35:52.951Z,4164
2017-07-17T06:36:18.413Z,3720
2017-07-17T06:36:43.877Z,3572
2017-07-17T06:37:09.366Z,3668
2017-07-17T06:37:34.847Z,3764
2017-07-17T06:38:00.321Z,3864
2017-07-17T06:38:25.779Z,3788
2017-07-17T06:38:51.267Z,3568
2017-07-17T06:39:16.749Z,3616
2017-07-17T06:39:42.235Z,4344
2017-07-17T06:40:07.702Z,4756
2017-07-17T06:40:33.175Z,5236
2017-07-17T06:40:58.657Z,4452
2017-07-17T06:41:24.117Z,4848
2017-07-17T06:41:49.595Z,5036
2017-07-17T06:42:15.018Z,5412
2017-07-17T06:42:40.490Z,5380
2017-07-17T06:43:05.954Z,5400
2017-07-17T06:43:31.445Z,5480
2017-07-17T06:43:56.900Z,5492
2017-07-17T06:44:22.371Z,5708
2017-07-17T06:44:47.848Z,6020
2017-07-17T06:45:13.356Z,6488
2017-07-17T06:45:38.819Z,7000
2017-07-17T06:46:04.301Z,7560
2017-07-17T06:46:29.777Z,7520
2017-07-17T06:46:55.249Z,6968
2017-07-17T06:47:20.777Z,6188
2017-07-17T06:47:46.254Z,5348
2017-07-17T06:48:11.740Z,4700
2017-07-17T06:48:37.211Z,4520
2017-07-17T06:49:02.679Z,4516
2017-07-17T06:49:28.146Z,4544
2017-07-17T06:49:53.611Z,4612
2017-07-17T06:50:19.082Z,4724
2017-07-17T06:50:44.518Z,4888
2017-07-17T06:51:09.973Z,5040
2017-07-17T06:51:35.451Z,5200
2017-07-17T06:52:00.933Z,5312
2017-07-17T06:52:26.411Z,5116
2017-07-17T06:52:51.883Z,5060
2017-07-17T06:53:17.345Z,4768
2017-07-17T06:53:42.803Z,4520
2017-07-17T06:54:08.273Z,4488
2017-07-17T06:54:33.736Z,4476
2017-07-17T06:54:59.200Z,4480
2017-07-17T06:55:24.669Z,4500
2017-07-17T06:55:50.140Z,4512
2017-07-17T06:56:15.595Z,4524
2017-07-17T06:56:41.072Z,4540
2017-07-17T06:57:06.535Z,4636
2017-07-17T06:57:31.974Z,4656
2017-07-17T06:57:57.457Z,4576
2017-07-17T06:58:22.929Z,4588
2017-07-17T06:58:48.382Z,2656
2017-07-17T06:59:13.859Z,2328
2017-07-17T06:59:39.323Z,2164
2017-07-17T07:00:04.800Z,2128
2017-07-17T07:00:30.299Z,2520
2017-07-17T07:00:55.769Z,2480
2017-07-17T07:01:21.242Z,2212
2017-07-17T07:01:46.725Z,2280
2017-07-17T07:02:12.203Z,4092
2017-07-17T07:02:37.662Z,3920
2017-07-17T07:03:03.173Z,4404
2017-07-17T07:03:28.703Z,1980
2017-07-17T07:03:54.159Z,1928
2017-07-17T07:04:19.645Z,1904
2017-07-17T07:04:45.121Z,1980
2017-07-17T07:05:10.583Z,1904
2017-07-17T07:05:36.057Z,1940
2017-07-17T07:06:01.523Z,4516
2017-07-17T07:06:27.002Z,4288
2017-07-17T07:06:52.495Z,4548
2017-07-17T07:07:17.988Z,4516
2017-07-17T07:07:43.452Z,4524
2017-07-17T07:08:08.916Z,4532
2017-07-17T07:08:34.385Z,4512
2017-07-17T07:08:59.850Z,4524
2017-07-17T07:09:25.330Z,2276
2017-07-17T07:09:50.830Z,4512
2017-07-17T07:10:16.303Z,4512
2017-07-17T07:10:41.786Z,4460
2017-07-17T07:11:07.264Z,4456
2017-07-17T07:11:32.760Z,4412
2017-07-17T07:11:58.230Z,4412
2017-07-17T07:12:23.711Z,4392
2017-07-17T07:12:49.197Z,4388
2017-07-17T07:13:14.683Z,4364
2017-07-17T07:13:40.159Z,4364
2017-07-17T07:14:05.649Z,4324
2017-07-17T07:14:31.109Z,4320
2017-07-17T07:14:56.567Z,4308
2017-07-17T07:15:22.033Z,4324
2017-07-17T07:15:47.535Z,4312
2017-07-17T07:16:13.000Z,4320
2017-07-17T07:16:38.490Z,4360
2017-07-17T07:17:03.994Z,4380
2017-07-17T07:17:29.449Z,4404
2017-07-17T07:17:54.946Z,4392
2017-07-17T07:18:20.430Z,4364
2017-07-17T07:18:45.889Z,4348
2017-07-17T07:19:11.352Z,4364
2017-07-17T07:19:36.825Z,4412
2017-07-17T07:20:02.297Z,4568
2017-07-17T07:20:27.762Z,4872
2017-07-17T07:20:53.225Z,5372
2017-07-17T07:21:18.666Z,5708
2017-07-17T07:21:44.133Z,5784
2017-07-17T07:22:09.622Z,5836
2017-07-17T07:22:35.071Z,5888
2017-07-17T07:23:00.527Z,5832
2017-07-17T07:23:26.001Z,5748
2017-07-17T07:23:51.466Z,5492
2017-07-17T07:24:16.926Z,5056
2017-07-17T07:24:42.389Z,4652
2017-07-17T07:25:07.886Z,4472
2017-07-17T07:25:33.358Z,4448
2017-07-17T07:25:58.839Z,4504
2017-07-17T07:26:24.338Z,4608
2017-07-17T07:26:49.804Z,4116
2017-07-17T07:27:15.268Z,2896
2017-07-17T07:27:40.748Z,4552
2017-07-17T07:28:06.256Z,4120
2017-07-17T07:28:31.751Z,4380
2017-07-17T07:28:57.234Z,3352
2017-07-17T07:29:22.696Z,4416
2017-07-17T07:29:48.175Z,4636
2017-07-17T07:30:13.642Z,4892
2017-07-17T07:30:39.128Z,5016
2017-07-17T07:31:04.593Z,3708
2017-07-17T07:31:30.063Z,3076
2017-07-17T07:31:55.531Z,3108
2017-07-17T07:32:21.028Z,4984
2017-07-17T07:32:46.510Z,5304
2017-07-17T07:33:11.986Z,5616
2017-07-17T07:33:37.436Z,5760
2017-07-17T07:34:02.947Z,4596
2017-07-17T07:34:28.432Z,2976
2017-07-17T07:34:53.917Z,4204
2017-07-17T07:35:19.412Z,3428
2017-07-17T07:35:44.954Z,3028
2017-07-17T07:36:10.391Z,2428
2017-07-17T07:36:35.841Z,2264
2017-07-17T07:37:01.324Z,2552
2017-07-17T07:37:26.785Z,2288
2017-07-17T07:37:52.241Z,2320
2017-07-17T07:38:17.735Z,2360
2017-07-17T07:38:43.217Z,4084
2017-07-17T07:39:08.688Z,4492
2017-07-17T07:39:34.152Z,4532
2017-07-17T07:39:59.619Z,4688
2017-07-17T07:40:25.131Z,4912
2017-07-17T07:40:50.613Z,5184
2017-07-17T07:41:16.072Z,5396
2017-07-17T07:41:41.564Z,5500
2017-07-17T07:42:07.065Z,5444
2017-07-17T07:42:32.525Z,5264
2017-07-17T07:42:57.983Z,5000
2017-07-17T07:43:23.468Z,4168
2017-07-17T07:43:48.946Z,3816
2017-07-17T07:44:14.435Z,4456
2017-07-17T07:44:39.879Z,4592
2017-07-17T07:45:05.347Z,4420
2017-07-17T07:45:30.818Z,5200
2017-07-17T07:45:56.319Z,5672
2017-07-17T07:46:21.803Z,5640
2017-07-17T07:46:47.285Z,5496
2017-07-17T07:47:12.760Z,5632
2017-07-17T07:47:38.254Z,5684
2017-07-17T07:48:03.732Z,5736
2017-07-17T07:48:29.222Z,5812
2017-07-17T07:48:54.695Z,5784
2017-07-17T07:49:20.170Z,5508
2017-07-17T07:49:45.648Z,5356
2017-07-17T07:50:11.131Z,5092
2017-07-17T07:50:36.610Z,4780
2017-07-17T07:51:02.067Z,4392
2017-07-17T07:51:27.550Z,4340
2017-07-17T07:51:53.025Z,4552
2017-07-17T07:52:18.520Z,4632
2017-07-17T07:52:44.021Z,4732
2017-07-17T07:53:09.498Z,4396
2017-07-17T07:53:34.968Z,4408
2017-07-17T07:54:00.448Z,4996
2017-07-17T07:54:25.914Z,5576
2017-07-17T07:54:51.410Z,4936
2017-07-17T07:55:16.885Z,4284
2017-07-17T07:55:42.373Z,4824
2017-07-17T07:56:07.821Z,4580
2017-07-17T07:56:33.298Z,4420
2017-07-17T07:56:58.774Z,4120
2017-07-17T07:57:24.254Z,3240
2017-07-17T07:57:49.730Z,3288
2017-07-17T07:58:15.178Z,3976
2017-07-17T07:58:40.683Z,4088
2017-07-17T07:59:06.153Z,3508
2017-07-17T07:59:31.633Z,2640
2017-07-17T07:59:57.120Z,2772
2017-07-17T08:00:22.595Z,2732
2017-07-17T08:00:48.074Z,4248
2017-07-17T08:01:13.551Z,4148
2017-07-17T08:01:39.015Z,4448
2017-07-17T08:02:04.529Z,3820
2017-07-17T08:02:30.000Z,3212
2017-07-17T08:02:55.459Z,4504
2017-07-17T08:03:20.969Z,4492
2017-07-17T08:03:46.436Z,2920
2017-07-17T08:04:11.911Z,3164
2017-07-17T08:04:37.374Z,3040
2017-07-17T08:05:02.840Z,3044
2017-07-17T08:05:28.307Z,4464
2017-07-17T08:05:53.749Z,4036
2017-07-17T08:06:19.229Z,4060
2017-07-17T08:06:44.727Z,3284
2017-07-17T08:07:10.217Z,2840
2017-07-17T08:07:35.706Z,3748
2017-07-17T08:08:01.181Z,3044
2017-07-17T08:08:26.682Z,3508
2017-07-17T08:08:52.185Z,3696
2017-07-17T08:09:17.647Z,3808
2017-07-17T08:09:43.140Z,3856
2017-07-17T08:10:08.633Z,3860
2017-07-17T08:10:34.106Z,3868
2017-07-17T08:10:59.574Z,3844
2017-07-17T08:11:25.066Z,3776
2017-07-17T08:11:50.511Z,3744
2017-07-17T08:12:15.996Z,3768
2017-07-17T08:12:41.472Z,3840
2017-07-17T08:13:06.930Z,3824
2017-07-17T08:13:32.428Z,3032
2017-07-17T08:13:57.925Z,2224
2017-07-17T08:14:23.378Z,2476
2017-07-17T08:14:48.858Z,3760
2017-07-17T08:15:14.334Z,3284
2017-07-17T08:15:39.820Z,3696
2017-07-17T08:16:05.277Z,3668
2017-07-17T08:16:30.766Z,3696
2017-07-17T08:16:56.264Z,3784
2017-07-17T08:17:21.755Z,3832
2017-07-17T08:17:47.228Z,3880
2017-07-17T08:18:12.735Z,3896
2017-07-17T08:18:38.229Z,3836
2017-07-17T08:19:03.700Z,3864
2017-07-17T08:19:29.195Z,3928
2017-07-17T08:19:54.661Z,3952
2017-07-17T08:20:20.159Z,3716
2017-07-17T08:20:45.657Z,3960
2017-07-17T08:21:11.164Z,3924
2017-07-17T08:21:36.636Z,3868
2017-07-17T08:22:02.085Z,3808
2017-07-17T08:22:27.567Z,3752
2017-07-17T08:22:53.048Z,3164
2017-07-17T08:23:18.520Z,3880
2017-07-17T08:23:43.988Z,3516
2017-07-17T08:24:09.482Z,3392
2017-07-17T08:24:34.941Z,3772
2017-07-17T08:25:00.410Z,3176
2017-07-17T08:25:25.892Z,3352
2017-07-17T08:25:51.366Z,3780
2017-07-17T08:26:16.851Z,4984
2017-07-17T08:26:42.337Z,6584
2017-07-17T08:27:07.798Z,6128
2017-07-17T08:27:33.260Z,6468
2017-07-17T08:27:58.763Z,6724
2017-07-17T08:28:24.239Z,6128
2017-07-17T08:28:49.703Z,5372
2017-07-17T08:29:15.193Z,4748
2017-07-17T08:29:40.670Z,4332
2017-07-17T08:30:06.164Z,3796
2017-07-17T08:30:31.664Z,3428
2017-07-17T08:30:57.192Z,3224
2017-07-17T08:31:22.669Z,3428
2017-07-17T08:31:48.139Z,3260
2017-07-17T08:32:13.633Z,3184
2017-07-17T08:32:39.100Z,2948
2017-07-17T08:33:04.562Z,2892
2017-07-17T08:33:30.060Z,3452
2017-07-17T08:33:55.549Z,3696
2017-07-17T08:34:21.027Z,2884
2017-07-17T08:34:46.518Z,2980
2017-07-17T08:35:12.001Z,3444
2017-07-17T08:35:37.456Z,3916
2017-07-17T08:36:02.935Z,3916
2017-07-17T08:36:28.433Z,3184
2017-07-17T08:36:53.901Z,4044
2017-07-17T08:37:19.374Z,3164
2017-07-17T08:37:44.842Z,4444
2017-07-17T08:38:10.324Z,4444
2017-07-17T08:38:35.817Z,4596
2017-07-17T08:39:01.288Z,4380
2017-07-17T08:39:26.759Z,4384
2017-07-17T08:39:52.219Z,4828
2017-07-17T08:40:17.735Z,3940
2017-07-17T08:40:43.220Z,4400
2017-07-17T08:41:08.707Z,4208
2017-07-17T08:41:34.166Z,3984
2017-07-17T08:41:59.633Z,4052
2017-07-17T08:42:25.114Z,4036
2017-07-17T08:42:50.596Z,4052
2017-07-17T08:43:16.071Z,3888
2017-07-17T08:43:41.561Z,3740
2017-07-17T08:44:07.043Z,3640
2017-07-17T08:44:32.514Z,3512
2017-07-17T08:44:57.992Z,3648
2017-07-17T08:45:23.473Z,3896
2017-07-17T08:45:48.950Z,3832
2017-07-17T08:46:14.425Z,3996
2017-07-17T08:46:39.898Z,4436
2017-07-17T08:47:05.372Z,4664
2017-07-17T08:47:30.862Z,4816
2017-07-17T08:47:56.345Z,4908
2017-07-17T08:48:21.821Z,4844
2017-07-17T08:48:47.270Z,4520
2017-07-17T08:49:12.737Z,4104
2017-07-17T08:49:38.197Z,3328
2017-07-17T08:50:03.689Z,2772
2017-07-17T08:50:29.180Z,2644
2017-07-17T08:50:54.713Z,3408
2017-07-17T08:51:20.159Z,3736
2017-07-17T08:51:45.622Z,3752
2017-07-17T08:52:11.098Z,3796
2017-07-17T08:52:36.566Z,3856
2017-07-17T08:53:02.046Z,3868
2017-07-17T08:53:27.537Z,3848
2017-07-17T08:53:53.023Z,3948
2017-07-17T08:54:18.496Z,4028
2017-07-17T08:54:43.971Z,4080
2017-07-17T08:55:09.456Z,4204
2017-07-17T08:55:34.948Z,4268
2017-07-17T08:56:00.415Z,4348
2017-07-17T08:56:25.893Z,4504
2017-07-17T08:56:51.377Z,4376
2017-07-17T08:57:16.850Z,4480
2017-07-17T08:57:42.338Z,4416
2017-07-17T08:58:07.804Z,4460
2017-07-17T08:58:33.299Z,4616
2017-07-17T08:58:58.768Z,4516
2017-07-17T08:59:24.240Z,4580
2017-07-17T08:59:49.724Z,4580
2017-07-17T09:00:15.187Z,4788
2017-07-17T09:00:40.656Z,4664
2017-07-17T09:01:06.153Z,4448
2017-07-17T09:01:31.619Z,3932
2017-07-17T09:01:57.086Z,3512
2017-07-17T09:02:22.581Z,4168
2017-07-17T09:02:48.053Z,3800
2017-07-17T09:03:13.555Z,3900
2017-07-17T09:03:39.032Z,4004
2017-07-17T09:04:04.534Z,4256
2017-07-17T09:04:29.996Z,4676
2017-07-17T09:04:55.469Z,5184
2017-07-17T09:05:20.950Z,5640
2017-07-17T09:05:46.454Z,5732
2017-07-17T09:06:11.973Z,6188
2017-07-17T09:06:37.435Z,6904
2017-07-17T09:07:02.910Z,7536
2017-07-17T09:07:28.424Z,7528
2017-07-17T09:07:53.906Z,6992
2017-07-17T09:08:19.379Z,6488
2017-07-17T09:08:44.853Z,5708
2017-07-17T09:09:10.350Z,4576
2017-07-17T09:09:35.823Z,3888
2017-07-17T09:10:01.321Z,3500
2017-07-17T09:10:26.797Z,3244
2017-07-17T09:10:52.246Z,3408
2017-07-17T09:11:17.752Z,3040
2017-07-17T09:11:43.233Z,3032
2017-07-17T09:12:08.720Z,4200
2017-07-17T09:12:34.213Z,4560
2017-07-17T09:12:59.698Z,4496
2017-07-17T09:13:25.175Z,4644
2017-07-17T09:13:50.634Z,4260
2017-07-17T09:14:16.116Z,4028
2017-07-17T09:14:41.583Z,4276
2017-07-17T09:15:07.075Z,4064
2017-07-17T09:15:32.519Z,3812
2017-07-17T09:15:58.028Z,4744
2017-07-17T09:16:23.486Z,4756
2017-07-17T09:16:48.974Z,4504
2017-07-17T09:17:14.425Z,4712
2017-07-17T09:17:39.893Z,4280
2017-07-17T09:18:05.390Z,4220
2017-07-17T09:18:30.874Z,4220
2017-07-17T09:18:56.338Z,4160
2017-07-17T09:19:21.811Z,4036
2017-07-17T09:19:47.291Z,3504
2017-07-17T09:20:12.774Z,3768
2017-07-17T09:20:38.246Z,3176
2017-07-17T09:21:03.718Z,2748
2017-07-17T09:21:29.191Z,2660
2017-07-17T09:21:54.649Z,2668
2017-07-17T09:22:20.131Z,3640
2017-07-17T09:22:45.590Z,3608
2017-07-17T09:23:11.041Z,3600
2017-07-17T09:23:36.534Z,3716
2017-07-17T09:24:02.016Z,3356
2017-07-17T09:24:27.471Z,3660
2017-07-17T09:24:52.934Z,3520
2017-07-17T09:25:18.432Z,3448
2017-07-17T09:25:43.914Z,3340
2017-07-17T09:26:09.396Z,3260
2017-07-17T09:26:34.872Z,3172
2017-07-17T09:27:00.350Z,3076
2017-07-17T09:27:25.840Z,3096
2017-07-17T09:27:51.325Z,3096
2017-07-17T09:28:16.821Z,3108
2017-07-17T09:28:42.299Z,3096
2017-07-17T09:29:07.768Z,3076
2017-07-17T09:29:33.269Z,3096
2017-07-17T09:29:58.751Z,3080
2017-07-17T09:30:24.230Z,3052
2017-07-17T09:30:49.687Z,3092
2017-07-17T09:31:15.173Z,3128
2017-07-17T09:31:40.664Z,3152
2017-07-17T09:32:06.153Z,3120
2017-07-17T09:32:31.632Z,3108
2017-07-17T09:32:57.126Z,3148
2017-07-17T09:33:22.593Z,3168
2017-07-17T09:33:48.069Z,3168
2017-07-17T09:34:13.519Z,3188
2017-07-17T09:34:39.004Z,3172
2017-07-17T09:35:04.486Z,3176
2017-07-17T09:35:29.954Z,3164
2017-07-17T09:35:55.435Z,3152
2017-07-17T09:36:20.897Z,3148
2017-07-17T09:36:46.395Z,3140
2017-07-17T09:37:11.871Z,3148
2017-07-17T09:37:37.353Z,3148
2017-07-17T09:38:02.812Z,3168
2017-07-17T09:38:28.288Z,3192
2017-07-17T09:38:53.782Z,3220
2017-07-17T09:39:19.263Z,3244
2017-07-17T09:39:44.739Z,3272
2017-07-17T09:40:10.249Z,3292
2017-07-17T09:40:35.725Z,3316
2017-07-17T09:41:01.205Z,3320
2017-07-17T09:41:26.697Z,3316
2017-07-17T09:41:52.184Z,3312
2017-07-17T09:42:17.653Z,3288
2017-07-17T09:42:43.146Z,3252
2017-07-17T09:43:08.635Z,3172
2017-07-17T09:43:34.129Z,3180
2017-07-17T09:43:59.609Z,3144
2017-07-17T09:44:25.085Z,3120
2017-07-17T09:44:50.560Z,3104
2017-07-17T09:45:16.038Z,3084
2017-07-17T09:45:41.505Z,3072
2017-07-17T09:46:06.983Z,3056
2017-07-17T09:46:32.471Z,2984
2017-07-17T09:46:57.965Z,3012
2017-07-17T09:47:23.439Z,3092
2017-07-17T09:47:48.907Z,3112
2017-07-17T09:48:14.387Z,3128
2017-07-17T09:48:39.857Z,3200
2017-07-17T09:49:05.354Z,3336
2017-07-17T09:49:30.850Z,3492
2017-07-17T09:49:56.351Z,3640
2017-07-17T09:50:21.841Z,3856
2017-07-17T09:50:47.311Z,4128
2017-07-17T09:51:12.831Z,4448
2017-07-17T09:51:38.282Z,4740
2017-07-17T09:52:03.773Z,4872
2017-07-17T09:52:29.244Z,4628
2017-07-17T09:52:54.717Z,4272
2017-07-17T09:53:20.204Z,4100
2017-07-17T09:53:45.695Z,3860
2017-07-17T09:54:11.181Z,3536
2017-07-17T09:54:36.666Z,3260
2017-07-17T09:55:02.165Z,3112
2017-07-17T09:55:27.652Z,3080
2017-07-17T09:55:53.145Z,3076
2017-07-17T09:56:18.614Z,3060
2017-07-17T09:56:44.108Z,3040
2017-07-17T09:57:09.585Z,3032
2017-07-17T09:57:35.065Z,3024
2017-07-17T09:58:00.561Z,3016
2017-07-17T09:58:26.037Z,3036
2017-07-17T09:58:51.530Z,3044
2017-07-17T09:59:17.006Z,3040
2017-07-17T09:59:42.489Z,3036
2017-07-17T10:00:07.942Z,3044
2017-07-17T10:00:33.430Z,3044
2017-07-17T10:00:58.899Z,3056
2017-07-17T10:01:24.378Z,3108
2017-07-17T10:01:49.875Z,3136
2017-07-17T10:02:15.350Z,3064
2017-07-17T10:02:40.819Z,3000
2017-07-17T10:03:06.329Z,3000
2017-07-17T10:03:31.809Z,3044
2017-07-17T10:03:57.283Z,3128
2017-07-17T10:04:22.769Z,3248
2017-07-17T10:04:48.258Z,3360
2017-07-17T10:05:13.750Z,3276
2017-07-17T10:05:39.244Z,3096
2017-07-17T10:06:04.713Z,2952
2017-07-17T10:06:30.205Z,2880
2017-07-17T10:06:55.682Z,2836
2017-07-17T10:07:21.156Z,2812
2017-07-17T10:07:46.673Z,2800
2017-07-17T10:08:12.103Z,2796
2017-07-17T10:08:37.592Z,2780
2017-07-17T10:09:03.076Z,2744
2017-07-17T10:09:28.538Z,2712
2017-07-17T10:09:54.023Z,2712
2017-07-17T10:10:19.508Z,2660
2017-07-17T10:10:45.003Z,2188
2017-07-17T10:11:10.491Z,2036
2017-07-17T10:11:35.977Z,2108
2017-07-17T10:12:01.459Z,2712
2017-07-17T10:12:26.948Z,2688
2017-07-17T10:12:52.417Z,2676
2017-07-17T10:13:17.882Z,2664
2017-07-17T10:13:43.371Z,2660
2017-07-17T10:14:08.835Z,2664
2017-07-17T10:14:34.313Z,2656
2017-07-17T10:14:59.784Z,2708
2017-07-17T10:15:25.253Z,2720
2017-07-17T10:15:50.736Z,2680
2017-07-17T10:16:16.223Z,2624
2017-07-17T10:16:41.694Z,2600
2017-07-17T10:17:07.153Z,2592
2017-07-17T10:17:32.642Z,2588
2017-07-17T10:17:58.123Z,2580
2017-07-17T10:18:23.603Z,2572
2017-07-17T10:18:49.067Z,2568
2017-07-17T10:19:14.541Z,2564
2017-07-17T10:19:40.053Z,2564
2017-07-17T10:20:05.515Z,2564
2017-07-17T10:20:30.983Z,2572
2017-07-17T10:20:56.479Z,2576
2017-07-17T10:21:21.925Z,2584
2017-07-17T10:21:47.415Z,2588
2017-07-17T10:22:12.902Z,2592
2017-07-17T10:22:38.388Z,2588
2017-07-17T10:23:03.879Z,2584
2017-07-17T10:23:29.324Z,2576
2017-07-17T10:23:54.809Z,2572
2017-07-17T10:24:20.295Z,2572
2017-07-17T10:24:45.767Z,2568
2017-07-17T10:25:11.221Z,2568
2017-07-17T10:25:36.709Z,2564
2017-07-17T10:26:02.180Z,2564
2017-07-17T10:26:27.655Z,2560
2017-07-17T10:26:53.131Z,2556
2017-07-17T10:27:18.626Z,2552
2017-07-17T10:27:44.131Z,2556
2017-07-17T10:28:09.580Z,2560
2017-07-17T10:28:35.106Z,2564
2017-07-17T10:29:00.560Z,2580
2017-07-17T10:29:26.041Z,2580
2017-07-17T10:29:51.533Z,2600
2017-07-17T10:30:16.970Z,2584
2017-07-17T10:30:42.436Z,2544
2017-07-17T10:31:07.930Z,2528
2017-07-17T10:31:33.410Z,2524
2017-07-17T10:31:58.871Z,2524
2017-07-17T10:32:24.363Z,2516
2017-07-17T10:32:49.825Z,2520
2017-07-17T10:33:15.304Z,2524
2017-07-17T10:33:40.795Z,2528
2017-07-17T10:34:06.268Z,2540
2017-07-17T10:34:31.788Z,2552
2017-07-17T10:34:57.291Z,2568
2017-07-17T10:35:22.755Z,2580
2017-07-17T10:35:48.230Z,2596
2017-07-17T10:36:13.709Z,2604
2017-07-17T10:36:39.210Z,2608
2017-07-17T10:37:04.681Z,2604
2017-07-17T10:37:30.156Z,2596
2017-07-17T10:37:55.632Z,2580
2017-07-17T10:38:21.108Z,2576
2017-07-17T10:38:46.588Z,2568
2017-07-17T10:39:12.087Z,2568
2017-07-17T10:39:37.579Z,2572
2017-07-17T10:40:03.072Z,2568
2017-07-17T10:40:28.554Z,2564
2017-07-17T10:40:54.021Z,2552
2017-07-17T10:41:19.510Z,2544
2017-07-17T10:41:44.998Z,2536
2017-07-17T10:42:10.464Z,2532
2017-07-17T10:42:35.953Z,2536
2017-07-17T10:43:01.421Z,2544
2017-07-17T10:43:26.903Z,2552
2017-07-17T10:43:52.383Z,2564
2017-07-17T10:44:17.854Z,2588
2017-07-17T10:44:43.338Z,2616
2017-07-17T10:45:08.823Z,2648
2017-07-17T10:45:34.303Z,2712
2017-07-17T10:45:59.796Z,2816
2017-07-17T10:46:25.275Z,2948
2017-07-17T10:46:50.758Z,3088
2017-07-17T10:47:16.241Z,3208
2017-07-17T10:47:41.724Z,3356
2017-07-17T10:48:07.204Z,3424
2017-07-17T10:48:32.678Z,3516
2017-07-17T10:48:58.160Z,3532
2017-07-17T10:49:23.645Z,3516
2017-07-17T10:49:49.124Z,3660
2017-07-17T10:50:14.637Z,3912
2017-07-17T10:50:40.128Z,4016
2017-07-17T10:51:05.584Z,4000
2017-07-17T10:51:31.050Z,4160
2017-07-17T10:51:56.525Z,4464
2017-07-17T10:52:22.007Z,4756
2017-07-17T10:52:47.499Z,5168
2017-07-17T10:53:12.976Z,5228
2017-07-17T10:53:38.468Z,5460
2017-07-17T10:54:03.957Z,5888
2017-07-17T10:54:29.434Z,6048
2017-07-17T10:54:54.908Z,5964
2017-07-17T10:55:20.388Z,5780
2017-07-17T10:55:45.856Z,5488
2017-07-17T10:56:11.365Z,4948
2017-07-17T10:56:36.829Z,4120
2017-07-17T10:57:02.267Z,3432
2017-07-17T10:57:27.744Z,2996
2017-07-17T10:57:53.240Z,2740
2017-07-17T10:58:18.698Z,2524
2017-07-17T10:58:44.208Z,2440
2017-07-17T10:59:09.684Z,2636
2017-07-17T10:59:35.155Z,2448
2017-07-17T11:00:00.620Z,2488
2017-07-17T11:00:26.096Z,2548
2017-07-17T11:00:51.583Z,2764
2017-07-17T11:01:17.080Z,2748
2017-07-17T11:01:42.554Z,2776
2017-07-17T11:02:08.068Z,2972
2017-07-17T11:02:33.543Z,3112
2017-07-17T11:02:59.054Z,3156
2017-07-17T11:03:24.537Z,3136
2017-07-17T11:03:50.020Z,3256
2017-07-17T11:04:15.493Z,3452
2017-07-17T11:04:40.952Z,3364
2017-07-17T11:05:06.421Z,3072
2017-07-17T11:05:31.913Z,2936
2017-07-17T11:05:57.429Z,2904
2017-07-17T11:06:22.919Z,2984
2017-07-17T11:06:48.386Z,3168
2017-07-17T11:07:13.900Z,3328
2017-07-17T11:07:39.365Z,3568
2017-07-17T11:08:04.843Z,3600
2017-07-17T11:08:30.329Z,3508
2017-07-17T11:08:55.839Z,3328
2017-07-17T11:09:21.308Z,3176
2017-07-17T11:09:46.778Z,3032
2017-07-17T11:10:12.246Z,2976